Time;durP1;ratioP1;P1;durP2;ratioP2;P2;SDS_P1;SDS_P2;PMS_P1;PMS_P2;Temp;Humidity;BMP_temperature;BMP_pressure;BME280_temperature;BME280_humidity;BME280_pressure;Samples;Min_cycle;Max_cycle;Signal;HPM_P1;HPM_P2
2022/05/06 00:01:40;;;;;;;52.60;33.95;;;12.10;81.00;;;;;;5090172;28;20043;-68
2022/05/06 00:04:06;;;;;;;48.80;34.30;;;12.10;81.50;;;;;;5090974;28;20044;-69
2022/05/06 00:06:32;;;;;;;49.38;32.80;;;12.10;81.60;;;;;;5091095;28;20492;-69
2022/05/06 00:08:58;;;;;;;48.47;32.13;;;12.10;81.60;;;;;;5091057;28;20044;-68
2022/05/06 00:11:25;;;;;;;47.22;33.03;;;12.10;81.90;;;;;;5091321;28;20408;-68
2022/05/06 00:13:52;;;;;;;45.20;31.00;;;12.10;81.70;;;;;;5091155;28;20078;-69
2022/05/06 00:16:22;;;;;;;45.85;31.67;;;12.10;81.70;;;;;;5091049;28;20054;-68
2022/05/06 00:18:47;;;;;;;45.95;32.00;;;12.10;82.10;;;;;;5090986;28;20043;-68
2022/05/06 00:21:13;;;;;;;43.30;31.17;;;12.10;82.10;;;;;;5090742;28;20050;-69
2022/05/06 00:23:39;;;;;;;42.33;30.63;;;12.10;82.20;;;;;;5089747;28;20571;-69
2022/05/06 00:26:05;;;;;;;45.25;30.60;;;12.10;82.10;;;;;;5091396;28;20126;-69
2022/05/06 00:28:30;;;;;;;45.38;31.00;;;12.10;82.10;;;;;;5089821;28;20136;-69
2022/05/06 00:30:57;;;;;;;47.38;30.20;;;12.10;82.00;;;;;;5090532;28;20489;-69
2022/05/06 00:33:26;;;;;;;44.80;31.52;;;12.10;82.00;;;;;;5090677;28;20523;-69
2022/05/06 00:36:00;;;;;;;44.10;30.70;;;12.10;81.90;;;;;;5089300;28;20044;-69
2022/05/06 00:38:28;;;;;;;42.08;29.55;;;12.20;82.10;;;;;;5090895;28;20189;-69
2022/05/06 00:40:54;;;;;;;43.03;29.98;;;12.10;82.20;;;;;;5090571;28;20136;-68
2022/05/06 00:43:21;;;;;;;47.78;32.20;;;12.10;82.10;;;;;;5090364;28;20067;-68
2022/05/06 00:45:48;;;;;;;46.13;31.75;;;12.10;82.20;;;;;;5090420;28;20050;-68
2022/05/06 00:48:15;;;;;;;39.92;27.52;;;12.10;82.10;;;;;;5090440;28;20047;-68
2022/05/06 00:50:43;;;;;;;43.15;29.25;;;12.20;82.10;;;;;;5090772;28;20048;-69
2022/05/06 00:53:09;;;;;;;42.65;29.23;;;12.10;82.10;;;;;;5090289;28;20054;-69
2022/05/06 00:55:35;;;;;;;46.92;29.42;;;12.10;82.10;;;;;;5090107;28;20040;-69
2022/05/06 00:58:02;;;;;;;38.75;28.35;;;12.10;81.90;;;;;;5090324;28;20036;-69
2022/05/06 01:00:29;;;;;;;36.88;27.02;;;12.10;81.80;;;;;;5090367;28;20066;-69
2022/05/06 01:02:55;;;;;;;43.83;28.90;;;12.00;81.80;;;;;;5090085;28;20122;-69
2022/05/06 01:05:22;;;;;;;37.75;27.15;;;12.10;81.80;;;;;;5090049;28;20501;-69
2022/05/06 01:07:50;;;;;;;40.22;28.05;;;12.10;81.70;;;;;;5090066;28;20051;-69
2022/05/06 01:10:19;;;;;;;42.90;29.15;;;12.10;81.80;;;;;;5090041;28;20044;-69
2022/05/06 01:12:45;;;;;;;43.42;30.23;;;12.10;81.90;;;;;;5089960;28;20062;-69
2022/05/06 01:15:22;;;;;;;45.03;30.60;;;12.10;81.90;;;;;;5088870;28;20167;-69
2022/05/06 01:17:49;;;;;;;51.88;31.55;;;12.20;81.90;;;;;;5090046;28;20040;-69
2022/05/06 01:20:16;;;;;;;45.53;30.63;;;12.20;81.90;;;;;;5089770;28;20044;-69
2022/05/06 01:22:49;;;;;;;45.83;30.13;;;12.20;82.10;;;;;;5089912;28;20139;-69
2022/05/06 01:25:16;;;;;;;45.92;30.50;;;12.20;82.60;;;;;;5089905;28;20157;-69
2022/05/06 01:28:03;;;;;;;49.55;34.85;;;12.20;82.60;;;;;;5089500;28;20040;-69
2022/05/06 01:30:45;;;;;;;59.22;35.17;;;12.30;82.80;;;;;;5089701;28;20044;-69
2022/05/06 01:33:14;;;;;;;53.63;34.40;;;12.20;83.10;;;;;;5089662;28;20090;-69
2022/05/06 01:35:54;;;;;;;60.20;35.67;;;12.10;83.70;;;;;;5089472;28;20072;-69
2022/05/06 01:38:37;;;;;;;55.28;35.10;;;12.20;83.60;;;;;;5089708;28;20467;-69
2022/05/06 01:41:05;;;;;;;56.92;35.08;;;12.10;83.90;;;;;;5089750;28;20051;-69
2022/05/06 01:43:42;;;;;;;60.38;37.85;;;12.10;83.80;;;;;;5089390;28;20044;-68
2022/05/06 01:46:09;;;;;;;61.00;39.47;;;12.10;84.10;;;;;;5089511;28;20044;-69
2022/05/06 01:48:36;;;;;;;56.10;36.65;;;12.10;84.40;;;;;;5089533;28;20066;-69
2022/05/06 01:51:02;;;;;;;57.47;37.47;;;12.10;84.30;;;;;;5089465;28;20527;-69
2022/05/06 01:53:28;;;;;;;52.65;34.78;;;12.00;84.50;;;;;;5089450;28;20799;-69
2022/05/06 01:55:54;;;;;;;55.55;37.13;;;12.10;84.40;;;;;;5089588;28;20044;-69
2022/05/06 01:58:20;;;;;;;50.92;35.85;;;12.10;84.60;;;;;;5093665;28;20079;-69
2022/05/06 02:00:46;;;;;;;53.72;35.95;;;12.00;84.70;;;;;;5093406;28;20492;-69
2022/05/06 02:05:57;;;;;;;51.15;34.50;;;12.00;85.50;;;;;;5093538;28;20044;-68
2022/05/06 02:08:22;;;;;;;57.22;36.97;;;11.90;85.40;;;;;;5093609;28;20515;-69
2022/05/06 02:10:48;;;;;;;53.13;35.25;;;12.00;85.40;;;;;;5093345;28;20055;-68
2022/05/06 02:13:14;;;;;;;55.53;36.20;;;12.00;85.30;;;;;;5093136;28;20052;-68
2022/05/06 02:15:40;;;;;;;55.38;36.40;;;12.00;85.50;;;;;;5093361;28;20040;-68
2022/05/06 02:18:05;;;;;;;52.25;35.08;;;12.00;85.40;;;;;;5093324;28;20500;-69
2022/05/06 02:20:31;;;;;;;52.35;35.45;;;12.00;85.30;;;;;;5092939;28;20044;-68
2022/05/06 02:22:57;;;;;;;60.05;36.50;;;12.10;85.30;;;;;;5093038;28;20066;-68
2022/05/06 02:25:22;;;;;;;51.90;34.38;;;12.00;85.40;;;;;;5093272;28;20047;-68
2022/05/06 02:27:50;;;;;;;53.65;35.67;;;12.10;85.40;;;;;;5093054;28;20146;-68
2022/05/06 02:33:12;;;;;;;57.50;35.05;;;12.10;85.30;;;;;;5093033;28;20040;-68
2022/05/06 02:35:39;;;;;;;85.85;34.08;;;12.10;85.20;;;;;;5092762;28;20051;-68
2022/05/06 02:38:05;;;;;;;65.05;35.53;;;12.10;85.20;;;;;;5092995;28;20052;-68
2022/05/06 02:40:34;;;;;;;70.78;36.13;;;12.00;85.20;;;;;;5092501;28;20048;-68
2022/05/06 02:43:00;;;;;;;53.10;36.78;;;11.90;85.30;;;;;;5093049;28;20036;-68
2022/05/06 02:45:26;;;;;;;50.75;35.78;;;11.90;85.30;;;;;;5092623;28;20044;-68
2022/05/06 02:47:52;;;;;;;54.60;37.80;;;11.90;85.40;;;;;;5092981;28;20059;-68
2022/05/06 02:50:17;;;;;;;53.35;37.08;;;11.90;85.40;;;;;;5092547;28;20044;-68
2022/05/06 02:52:43;;;;;;;45.47;32.75;;;11.90;85.50;;;;;;5092734;28;20485;-67
2022/05/06 02:55:08;;;;;;;88.22;34.95;;;11.90;85.60;;;;;;5092174;28;20101;-68
2022/05/06 02:57:34;;;;;;;53.00;35.40;;;11.90;85.80;;;;;;5092474;28;20047;-68
2022/05/06 02:59:59;;;;;;;49.83;35.35;;;11.90;85.80;;;;;;5092378;28;20040;-68
2022/05/06 03:02:25;;;;;;;56.00;37.00;;;11.90;85.80;;;;;;5092635;28;20036;-68
2022/05/06 03:04:51;;;;;;;55.78;35.05;;;11.90;85.90;;;;;;5092635;28;20394;-68
2022/05/06 03:07:16;;;;;;;59.00;34.38;;;11.90;86.10;;;;;;5090913;28;20040;-69
2022/05/06 03:09:42;;;;;;;57.75;32.72;;;11.80;86.00;;;;;;5091938;28;20412;-68
2022/05/06 03:12:08;;;;;;;51.30;32.85;;;11.80;86.20;;;;;;5092600;28;20488;-68
2022/05/06 03:14:34;;;;;;;48.85;34.33;;;11.80;86.20;;;;;;5091259;28;20092;-69
2022/05/06 03:16:59;;;;;;;64.03;30.58;;;11.80;86.30;;;;;;5091102;28;20079;-69
2022/05/06 03:19:25;;;;;;;57.80;33.33;;;11.80;86.30;;;;;;5091889;28;20040;-68
2022/05/06 03:21:54;;;;;;;69.63;31.65;;;11.80;86.20;;;;;;5092283;28;20040;-68
2022/05/06 03:24:20;;;;;;;78.60;30.92;;;11.80;86.40;;;;;;5092314;28;20055;-68
2022/05/06 03:26:46;;;;;;;45.28;30.27;;;11.70;86.30;;;;;;5092210;28;20036;-68
2022/05/06 03:29:12;;;;;;;80.32;27.10;;;11.70;86.40;;;;;;5090627;28;20047;-68
2022/05/06 03:31:37;;;;;;;72.20;25.95;;;11.70;86.70;;;;;;5089622;28;20036;-68
2022/05/06 03:34:03;;;;;;;72.32;24.25;;;11.60;86.60;;;;;;5090223;28;20040;-68
2022/05/06 03:36:29;;;;;;;47.25;24.17;;;11.60;86.70;;;;;;5091628;28;20131;-68
2022/05/06 03:38:55;;;;;;;35.25;22.63;;;11.60;86.60;;;;;;5092113;28;20068;-68
2022/05/06 03:41:21;;;;;;;38.00;22.33;;;11.60;86.80;;;;;;5091740;28;20047;-68
2022/05/06 03:43:47;;;;;;;40.92;21.73;;;11.60;86.80;;;;;;5091744;28;20463;-68
2022/05/06 03:46:13;;;;;;;34.03;20.85;;;11.60;86.70;;;;;;5091657;28;20066;-68
2022/05/06 03:48:38;;;;;;;38.25;21.88;;;11.60;86.70;;;;;;5091097;28;20052;-68
2022/05/06 03:51:20;;;;;;;32.75;21.40;;;11.60;86.70;;;;;;5091608;28;20036;-68
2022/05/06 03:53:50;;;;;;;41.00;19.95;;;11.60;86.80;;;;;;5091979;28;20131;-69
2022/05/06 03:56:16;;;;;;;32.50;19.35;;;11.60;87.00;;;;;;5091284;28;20083;-68
2022/05/06 03:58:42;;;;;;;25.35;17.58;;;11.50;87.10;;;;;;5091341;28;20117;-68
2022/05/06 04:01:08;;;;;;;37.20;18.75;;;11.50;87.10;;;;;;5091248;28;20515;-68
2022/05/06 04:03:34;;;;;;;33.38;19.13;;;11.50;87.00;;;;;;5090127;28;20052;-68
2022/05/06 04:05:59;;;;;;;30.63;18.67;;;11.40;87.00;;;;;;5091102;28;20450;-68
2022/05/06 04:08:25;;;;;;;28.35;18.15;;;11.40;87.10;;;;;;5090979;28;20044;-68
2022/05/06 04:10:50;;;;;;;28.80;16.90;;;11.50;87.20;;;;;;5090859;28;20123;-68
2022/05/06 04:13:19;;;;;;;23.63;17.42;;;11.50;87.30;;;;;;5090940;28;20051;-68
2022/05/06 04:15:47;;;;;;;26.48;15.63;;;11.40;87.30;;;;;;5091117;28;20051;-68
2022/05/06 04:18:13;;;;;;;24.17;14.93;;;11.40;87.40;;;;;;5090906;28;20504;-68
2022/05/06 04:23:33;;;;;;;18.38;13.48;;;11.20;87.80;;;;;;5089351;28;20055;-69
2022/05/06 04:26:06;;;;;;;18.20;12.60;;;11.10;87.70;;;;;;5090536;28;20102;-68
2022/05/06 04:28:34;;;;;;;23.95;13.20;;;11.10;87.80;;;;;;5090705;28;20051;-68
2022/05/06 04:31:00;;;;;;;12.13;10.80;;;11.00;88.00;;;;;;5090131;28;20043;-68
2022/05/06 04:33:27;;;;;;;16.92;10.90;;;11.00;88.10;;;;;;5090416;28;20115;-68
2022/05/06 04:35:56;;;;;;;17.45;9.68;;;10.90;88.00;;;;;;5090541;28;20067;-68
2022/05/06 04:38:23;;;;;;;12.43;9.18;;;10.90;88.50;;;;;;5090547;28;20053;-68
2022/05/06 04:40:49;;;;;;;11.48;9.52;;;10.90;88.40;;;;;;5090402;28;20067;-68
2022/05/06 04:43:17;;;;;;;11.00;7.97;;;10.90;88.40;;;;;;5090137;28;20036;-68
2022/05/06 04:45:43;;;;;;;10.52;9.30;;;10.90;88.40;;;;;;5090297;28;20531;-68
2022/05/06 04:48:11;;;;;;;16.65;8.57;;;10.80;88.50;;;;;;5090277;28;20144;-68
2022/05/06 04:50:38;;;;;;;12.13;8.48;;;10.80;88.50;;;;;;5090053;28;20442;-68
2022/05/06 04:53:07;;;;;;;9.90;8.25;;;10.70;88.60;;;;;;5089832;28;20094;-68
2022/05/06 04:55:45;;;;;;;10.85;7.18;;;10.80;88.60;;;;;;5090065;28;20158;-68
2022/05/06 04:58:11;;;;;;;11.85;8.07;;;10.90;88.60;;;;;;5090007;28;20746;-68
2022/05/06 05:00:37;;;;;;;12.85;7.75;;;10.90;88.60;;;;;;5089614;28;20051;-68
2022/05/06 05:03:03;;;;;;;14.00;8.05;;;10.90;88.70;;;;;;5090433;28;20040;-69
2022/05/06 05:05:29;;;;;;;12.05;7.97;;;10.90;88.50;;;;;;5089874;28;20442;-68
2022/05/06 05:07:54;;;;;;;25.33;8.55;;;10.90;88.50;;;;;;5089854;28;20040;-68
2022/05/06 05:10:24;;;;;;;18.67;7.88;;;10.90;88.70;;;;;;5089912;28;20522;-68
2022/05/06 05:12:50;;;;;;;11.93;8.82;;;10.90;88.70;;;;;;5090066;28;20054;-69
2022/05/06 05:15:16;;;;;;;18.13;8.48;;;10.90;88.70;;;;;;5089481;28;20047;-68
2022/05/06 05:17:45;;;;;;;33.85;8.77;;;10.90;88.80;;;;;;5089947;28;20056;-69
2022/05/06 05:20:14;;;;;;;11.18;8.38;;;11.00;88.70;;;;;;5089893;28;20040;-69
2022/05/06 05:22:41;;;;;;;13.75;9.18;;;11.10;88.80;;;;;;5089887;28;20079;-68
2022/05/06 05:25:07;;;;;;;10.77;8.60;;;11.10;88.60;;;;;;5089974;28;20093;-68
2022/05/06 05:27:34;;;;;;;10.45;8.27;;;11.10;88.90;;;;;;5089991;28;20036;-68
2022/05/06 05:30:01;;;;;;;10.98;8.52;;;11.20;88.70;;;;;;5089394;28;20059;-69
2022/05/06 05:32:27;;;;;;;10.93;8.32;;;11.30;88.70;;;;;;5089701;28;20794;-68
2022/05/06 05:34:52;;;;;;;11.85;8.02;;;11.30;88.60;;;;;;5089637;28;20032;-69
2022/05/06 05:37:18;;;;;;;16.92;8.30;;;11.40;88.50;;;;;;5089481;28;20043;-69
2022/05/06 05:39:44;;;;;;;14.23;8.52;;;11.50;88.50;;;;;;5089605;28;20047;-69
2022/05/06 05:42:10;;;;;;;12.73;8.65;;;11.40;88.60;;;;;;5087948;28;20058;-68
2022/05/06 05:50:05;;;;;;;12.27;9.00;;;11.40;88.20;;;;;;5088226;28;20499;-69
2022/05/06 05:52:31;;;;;;;12.48;8.88;;;11.40;88.50;;;;;;5088332;28;20470;-68
2022/05/06 05:54:56;;;;;;;12.10;10.48;;;11.40;88.60;;;;;;5089361;28;20040;-68
2022/05/06 05:57:22;;;;;;;11.73;10.48;;;11.30;88.50;;;;;;5089407;28;20127;-69
2022/05/06 05:59:48;;;;;;;16.75;11.20;;;11.30;88.50;;;;;;5089572;28;20079;-69
2022/05/06 06:02:16;;;;;;;13.25;11.48;;;11.20;88.60;;;;;;5089359;28;20043;-68
2022/05/06 06:04:42;;;;;;;15.52;12.20;;;11.30;88.60;;;;;;5089318;28;20416;-69
2022/05/06 06:07:07;;;;;;;14.65;12.88;;;11.40;88.50;;;;;;5089033;28;20058;-69
2022/05/06 06:09:33;;;;;;;14.57;11.77;;;11.40;88.40;;;;;;5088962;28;20052;-68
2022/05/06 06:11:58;;;;;;;27.15;12.80;;;11.50;88.60;;;;;;5087899;28;20044;-68
2022/05/06 06:14:24;;;;;;;16.08;11.55;;;11.50;88.40;;;;;;5088125;28;20048;-68
2022/05/06 06:16:50;;;;;;;15.30;10.85;;;11.50;88.30;;;;;;5089077;28;20066;-68
2022/05/06 06:19:16;;;;;;;13.63;11.15;;;11.50;88.20;;;;;;5088876;28;20036;-68
2022/05/06 06:21:43;;;;;;;12.48;10.55;;;11.40;88.20;;;;;;5089020;28;20044;-68
2022/05/06 06:24:09;;;;;;;13.07;11.65;;;11.40;88.30;;;;;;5071089;28;20040;-68
2022/05/06 06:26:35;;;;;;;13.98;12.25;;;11.40;88.30;;;;;;5089088;28;20044;-68
2022/05/06 06:29:01;;;;;;;16.35;13.05;;;11.30;88.40;;;;;;5089070;28;20089;-68
2022/05/06 06:31:30;;;;;;;12.95;11.35;;;11.30;88.50;;;;;;5088721;28;20070;-68
2022/05/06 06:33:56;;;;;;;13.35;11.10;;;11.20;88.80;;;;;;5089013;28;20063;-69
2022/05/06 06:36:23;;;;;;;14.27;11.70;;;11.30;89.00;;;;;;5088791;28;20047;-68
2022/05/06 06:38:49;;;;;;;15.25;12.23;;;11.30;88.90;;;;;;5088936;28;20498;-69
2022/05/06 06:41:15;;;;;;;13.52;11.18;;;11.40;88.70;;;;;;5088598;28;20040;-68
2022/05/06 06:43:40;;;;;;;13.88;11.35;;;11.40;88.60;;;;;;5091468;28;20378;-68
2022/05/06 06:46:06;;;;;;;13.85;11.95;;;11.50;88.40;;;;;;5092607;28;20036;-69
2022/05/06 06:48:32;;;;;;;14.77;12.55;;;11.60;88.40;;;;;;5091400;28;20039;-69
2022/05/06 06:50:58;;;;;;;16.67;13.05;;;11.60;88.30;;;;;;5091109;28;20147;-68
2022/05/06 06:53:24;;;;;;;14.02;12.27;;;11.60;88.40;;;;;;5092608;28;20051;-69
2022/05/06 06:55:50;;;;;;;15.73;12.45;;;11.60;88.20;;;;;;5092288;28;20048;-69
2022/05/06 06:58:16;;;;;;;14.10;12.15;;;11.70;88.30;;;;;;5092403;28;20084;-69
2022/05/06 07:00:44;;;;;;;15.18;11.85;;;11.60;88.10;;;;;;5092311;28;20048;-68
2022/05/06 07:03:11;;;;;;;14.68;12.15;;;11.70;88.10;;;;;;5092747;28;20535;-69
2022/05/06 07:05:37;;;;;;;14.98;12.07;;;11.70;88.00;;;;;;5092398;28;20048;-68
2022/05/06 07:13:32;;;;;;;12.15;10.85;;;12.00;87.70;;;;;;5092116;28;20496;-69
2022/05/06 07:15:58;;;;;;;13.55;10.25;;;12.10;87.50;;;;;;5092097;28;20514;-69
2022/05/06 07:18:23;;;;;;;11.52;10.32;;;12.10;87.10;;;;;;5092104;28;20036;-69
2022/05/06 07:20:49;;;;;;;12.98;10.70;;;12.20;87.20;;;;;;5091689;28;20082;-69
2022/05/06 07:23:14;;;;;;;13.35;11.05;;;12.20;87.00;;;;;;5092208;28;20040;-69
2022/05/06 07:25:40;;;;;;;11.73;10.52;;;12.30;86.70;;;;;;5091194;28;20052;-69
2022/05/06 07:28:07;;;;;;;11.63;9.57;;;12.30;86.60;;;;;;5091887;28;20073;-69
2022/05/06 07:30:33;;;;;;;12.55;10.77;;;12.50;86.50;;;;;;5091920;28;20455;-69
2022/05/06 07:32:59;;;;;;;10.20;9.10;;;12.50;86.10;;;;;;5091363;28;20040;-69
2022/05/06 07:35:25;;;;;;;10.00;9.00;;;12.60;85.80;;;;;;5091701;28;20164;-69
2022/05/06 07:37:51;;;;;;;10.93;9.35;;;12.70;85.60;;;;;;5091875;28;20076;-69
2022/05/06 07:40:16;;;;;;;9.23;8.23;;;12.90;85.50;;;;;;5091671;28;20040;-69
2022/05/06 07:42:43;;;;;;;8.80;7.95;;;12.90;85.20;;;;;;5091844;28;20109;-69
2022/05/06 07:45:11;;;;;;;9.32;7.80;;;13.00;84.80;;;;;;5091276;28;20048;-69
2022/05/06 07:47:37;;;;;;;10.10;8.65;;;13.10;84.30;;;;;;5090295;28;20125;-69
2022/05/06 07:50:03;;;;;;;9.50;8.50;;;13.10;84.20;;;;;;5091653;28;20052;-69
2022/05/06 07:52:29;;;;;;;9.60;8.52;;;13.20;84.10;;;;;;5091589;28;20051;-69
2022/05/06 07:54:54;;;;;;;8.77;7.63;;;13.30;83.80;;;;;;5089428;28;20047;-69
2022/05/06 07:57:20;;;;;;;7.82;7.03;;;13.40;83.60;;;;;;5091545;28;20052;-69
2022/05/06 07:59:46;;;;;;;8.82;6.65;;;13.50;83.40;;;;;;5091433;28;20036;-69
2022/05/06 08:05:06;;;;;;;7.10;6.40;;;13.50;82.60;;;;;;5070692;28;20045;-67
2022/05/06 08:07:31;;;;;;;7.05;6.18;;;13.60;82.50;;;;;;5091065;28;20039;-68
2022/05/06 08:09:57;;;;;;;7.65;5.97;;;13.60;82.40;;;;;;5090946;28;20174;-68
2022/05/06 08:12:23;;;;;;;5.90;5.30;;;13.70;82.20;;;;;;5090781;28;20516;-68
2022/05/06 08:14:49;;;;;;;7.22;4.88;;;13.70;81.70;;;;;;5091307;28;20131;-69
2022/05/06 08:17:15;;;;;;;8.20;5.25;;;13.80;81.80;;;;;;5090804;28;20139;-68
2022/05/06 08:19:41;;;;;;;5.95;5.18;;;13.90;80.90;;;;;;5090629;28;20055;-68
2022/05/06 08:22:06;;;;;;;6.10;5.50;;;13.90;81.20;;;;;;5090880;28;20044;-69
2022/05/06 08:24:33;;;;;;;5.82;5.22;;;14.00;81.10;;;;;;5090648;28;20047;-68
2022/05/06 08:26:59;;;;;;;8.77;5.75;;;14.10;80.80;;;;;;5090575;28;20065;-68
2022/05/06 08:29:24;;;;;;;6.40;5.32;;;14.10;80.90;;;;;;5090727;28;20044;-69
2022/05/06 08:31:51;;;;;;;4.85;4.43;;;14.20;80.70;;;;;;5090567;28;20852;-68
2022/05/06 08:34:18;;;;;;;6.00;5.40;;;14.30;80.50;;;;;;5090524;28;20126;-68
2022/05/06 08:36:44;;;;;;;6.13;4.72;;;14.30;80.00;;;;;;5090285;28;20514;-68
2022/05/06 08:39:12;;;;;;;5.03;3.75;;;14.30;79.40;;;;;;5090344;28;20056;-68
2022/05/06 08:41:39;;;;;;;5.30;4.80;;;14.30;79.10;;;;;;5090607;28;20080;-68
2022/05/06 08:52:36;;;;;;;4.82;4.43;;;14.60;79.50;;;;;;5090110;28;20052;-68
2022/05/06 08:55:04;;;;;;;6.10;4.68;;;14.80;79.20;;;;;;5090136;28;20048;-68
2022/05/06 08:57:30;;;;;;;4.53;3.95;;;14.80;79.00;;;;;;5089172;28;20113;-68
2022/05/06 08:59:56;;;;;;;4.22;3.83;;;14.90;78.80;;;;;;5090249;28;20055;-68
2022/05/06 09:02:22;;;;;;;4.32;3.92;;;14.90;78.50;;;;;;5089753;28;20488;-68
2022/05/06 09:04:47;;;;;;;4.50;4.10;;;15.00;78.20;;;;;;5090051;28;20036;-68
2022/05/06 09:07:23;;;;;;;4.07;3.67;;;15.10;78.00;;;;;;5089827;28;20047;-68
2022/05/06 09:10:14;;;;;;;4.28;3.88;;;15.10;77.50;;;;;;5090082;28;20064;-68
2022/05/06 09:12:44;;;;;;;4.30;3.90;;;15.20;77.20;;;;;;5090026;28;20044;-68
2022/05/06 09:18:00;;;;;;;4.25;3.83;;;15.30;76.90;;;;;;5089881;28;20497;-68
2022/05/06 09:20:27;;;;;;;4.32;3.85;;;15.30;76.50;;;;;;5089836;28;20044;-69
2022/05/06 09:22:54;;;;;;;5.38;4.07;;;15.30;76.40;;;;;;5089556;28;20047;-68
2022/05/06 09:25:42;;;;;;;6.80;4.18;;;15.30;76.30;;;;;;5089867;28;20044;-68
2022/05/06 09:28:40;;;;;;;4.72;4.20;;;15.50;76.00;;;;;;5089771;28;20047;-68
2022/05/06 09:31:08;;;;;;;4.70;4.20;;;15.60;75.60;;;;;;5077345;28;20496;-69
2022/05/06 09:33:42;;;;;;;4.47;4.07;;;15.50;76.00;;;;;;5089335;28;20089;-68
2022/05/06 09:36:29;;;;;;;4.95;3.90;;;15.60;75.60;;;;;;5089632;28;20040;-68
2022/05/06 09:39:04;;;;;;;4.38;3.97;;;15.60;75.00;;;;;;5089694;28;20138;-68
2022/05/06 09:41:30;;;;;;;3.97;3.58;;;15.60;75.30;;;;;;5089563;28;20047;-68
2022/05/06 09:44:04;;;;;;;5.25;4.10;;;15.60;75.20;;;;;;5089176;28;20481;-68
2022/05/06 09:46:30;;;;;;;6.22;4.25;;;15.80;74.80;;;;;;5089720;28;20036;-68
2022/05/06 09:48:57;;;;;;;6.00;4.07;;;15.90;74.70;;;;;;5089615;28;20071;-68
2022/05/06 09:51:33;;;;;;;6.75;4.07;;;16.00;74.40;;;;;;5089555;28;20382;-68
2022/05/06 09:54:00;;;;;;;7.78;4.88;;;16.10;73.90;;;;;;5089403;28;20400;-68
2022/05/06 09:56:27;;;;;;;5.60;3.78;;;16.20;73.80;;;;;;5089142;28;20052;-68
2022/05/06 09:58:54;;;;;;;5.25;4.35;;;16.30;73.40;;;;;;5089551;28;20043;-68
2022/05/06 10:01:21;;;;;;;5.05;4.22;;;16.50;73.40;;;;;;5089194;28;20122;-68
2022/05/06 10:03:47;;;;;;;5.85;5.13;;;16.60;73.10;;;;;;5089150;28;20088;-68
2022/05/06 10:06:14;;;;;;;5.07;4.63;;;16.70;72.70;;;;;;5089322;28;20044;-68
2022/05/06 10:08:47;;;;;;;5.60;5.00;;;16.80;72.30;;;;;;5089157;28;20056;-68
2022/05/06 10:11:17;;;;;;;10.98;6.45;;;16.90;72.40;;;;;;5089344;28;20705;-68
2022/05/06 10:13:45;;;;;;;6.10;5.50;;;17.00;71.80;;;;;;5089377;28;20055;-68
2022/05/06 10:16:12;;;;;;;6.65;5.65;;;17.10;71.40;;;;;;5088955;28;20131;-68
2022/05/06 10:18:44;;;;;;;8.07;5.78;;;17.10;71.20;;;;;;5091984;28;20396;-68
2022/05/06 10:21:14;;;;;;;5.78;5.22;;;17.10;70.60;;;;;;5093446;28;20044;-68
2022/05/06 10:23:50;;;;;;;7.88;5.28;;;17.20;70.90;;;;;;5093418;28;20036;-68
2022/05/06 10:26:39;;;;;;;6.07;5.47;;;17.40;70.40;;;;;;5092850;28;20477;-68
2022/05/06 10:34:55;;;;;;;10.80;5.72;;;17.50;68.40;;;;;;5092712;28;20068;-68
2022/05/06 10:37:21;;;;;;;7.15;5.35;;;17.50;67.30;;;;;;5092956;28;20036;-68
2022/05/06 10:39:46;;;;;;;6.90;6.20;;;17.50;67.90;;;;;;5092972;28;20409;-68
2022/05/06 10:42:15;;;;;;;8.15;5.70;;;17.60;68.50;;;;;;5092846;28;20837;-68
2022/05/06 10:44:47;;;;;;;8.02;5.55;;;17.60;68.30;;;;;;5092988;28;20119;-68
2022/05/06 10:47:12;;;;;;;6.88;5.60;;;17.60;68.30;;;;;;5092565;28;20066;-68
2022/05/06 10:49:38;;;;;;;11.13;6.32;;;17.50;67.70;;;;;;5092932;28;20131;-68
2022/05/06 10:52:15;;;;;;;8.20;5.97;;;17.60;68.40;;;;;;5092454;28;20047;-68
2022/05/06 10:55:01;;;;;;;8.23;6.85;;;17.70;68.00;;;;;;5092791;28;20052;-67
2022/05/06 10:57:32;;;;;;;7.95;6.43;;;17.90;67.40;;;;;;5092403;28;20076;-68
2022/05/06 11:00:03;;;;;;;8.45;6.32;;;17.80;67.60;;;;;;5092548;28;20044;-69
2022/05/06 11:02:30;;;;;;;8.00;5.80;;;17.90;67.20;;;;;;5092682;28;20130;-68
2022/05/06 11:05:00;;;;;;;9.52;5.88;;;18.00;67.40;;;;;;5092615;28;20048;-68
2022/05/06 11:07:28;;;;;;;7.45;6.00;;;18.10;67.00;;;;;;5092058;28;20050;-68
2022/05/06 11:09:53;;;;;;;7.32;5.93;;;18.10;66.60;;;;;;5092176;28;20056;-68
2022/05/06 11:12:38;;;;;;;6.63;5.80;;;18.00;65.70;;;;;;5092485;28;20040;-68
2022/05/06 11:15:06;;;;;;;6.32;5.28;;;18.10;65.70;;;;;;5092023;28;20158;-68
2022/05/06 11:17:32;;;;;;;7.03;5.55;;;18.00;66.30;;;;;;5092429;28;20527;-68
2022/05/06 11:19:59;;;;;;;8.35;6.43;;;17.90;66.00;;;;;;5092485;28;20059;-68
2022/05/06 11:22:25;;;;;;;7.97;6.30;;;17.90;66.50;;;;;;5092270;28;20079;-68
2022/05/06 11:24:57;;;;;;;8.27;6.47;;;17.90;65.90;;;;;;5092298;28;20495;-68
2022/05/06 11:27:24;;;;;;;7.70;5.40;;;18.00;66.20;;;;;;5092106;28;20040;-68
2022/05/06 11:29:56;;;;;;;6.15;5.20;;;18.10;65.20;;;;;;5091697;28;20131;-68
2022/05/06 11:32:27;;;;;;;7.07;5.80;;;18.20;65.00;;;;;;5090734;28;20416;-68
2022/05/06 11:35:01;;;;;;;6.97;5.80;;;18.40;65.10;;;;;;5091970;28;20040;-68
2022/05/06 11:37:29;;;;;;;6.20;5.13;;;18.60;64.70;;;;;;5092075;28;20090;-68
2022/05/06 11:42:40;;;;;;;11.57;7.05;;;18.80;64.30;;;;;;5091704;28;20420;-68
2022/05/06 11:47:51;;;;;;;7.47;6.32;;;19.00;63.90;;;;;;5091775;28;20056;-68
2022/05/06 11:50:17;;;;;;;9.38;7.20;;;19.00;64.30;;;;;;5091096;28;20094;-68
2022/05/06 11:52:45;;;;;;;10.52;8.35;;;19.10;64.10;;;;;;5091682;28;20075;-68
2022/05/06 11:55:11;;;;;;;7.78;6.80;;;19.10;63.80;;;;;;5091402;28;20110;-69
2022/05/06 11:57:39;;;;;;;8.93;7.43;;;19.10;64.00;;;;;;5091754;28;20055;-68
2022/05/06 12:00:06;;;;;;;10.55;8.18;;;19.00;63.70;;;;;;5091362;28;20044;-68
2022/05/06 12:02:33;;;;;;;10.93;8.90;;;19.10;64.20;;;;;;5091150;28;20485;-68
2022/05/06 12:04:58;;;;;;;13.40;9.48;;;19.00;63.70;;;;;;5090854;28;20082;-68
2022/05/06 12:07:44;;;;;;;11.77;9.00;;;19.00;63.60;;;;;;5091347;28;20047;-68
2022/05/06 12:10:10;;;;;;;13.55;10.32;;;19.10;64.20;;;;;;5091048;28;20811;-68
2022/05/06 12:12:56;;;;;;;13.65;9.43;;;19.10;64.10;;;;;;5090876;28;20457;-68
2022/05/06 12:15:28;;;;;;;12.13;9.95;;;19.20;64.00;;;;;;5091053;28;20508;-68
2022/05/06 12:18:02;;;;;;;15.32;10.55;;;19.20;63.70;;;;;;5090454;28;20797;-68
2022/05/06 12:20:34;;;;;;;14.48;10.45;;;19.30;64.00;;;;;;5091105;28;20388;-68
2022/05/06 12:23:00;;;;;;;13.40;10.45;;;19.40;63.40;;;;;;5089846;28;20101;-68
2022/05/06 12:25:27;;;;;;;15.15;11.52;;;19.30;63.40;;;;;;5090999;28;20044;-69
2022/05/06 12:28:15;;;;;;;14.20;11.20;;;19.40;63.40;;;;;;5090760;28;20580;-68
2022/05/06 12:30:44;;;;;;;15.13;10.23;;;19.50;61.80;;;;;;5090219;28;20044;-68
2022/05/06 12:33:17;;;;;;;16.48;11.65;;;19.40;62.50;;;;;;5090748;28;20783;-67
2022/05/06 12:35:58;;;;;;;12.85;9.68;;;19.40;62.10;;;;;;5090487;28;20191;-67
2022/05/06 12:38:26;;;;;;;18.92;11.18;;;19.50;61.50;;;;;;5090659;28;20082;-67
2022/05/06 12:40:53;;;;;;;16.00;11.15;;;19.60;62.00;;;;;;5089664;28;20445;-67
2022/05/06 12:43:27;;;;;;;14.00;10.88;;;19.70;61.90;;;;;;5090228;28;20085;-67
2022/05/06 12:45:55;;;;;;;15.50;11.30;;;20.00;61.80;;;;;;5090597;28;20119;-67
2022/05/06 12:51:06;;;;;;;12.18;9.55;;;20.20;60.90;;;;;;5090347;28;20044;-68
2022/05/06 12:53:36;;;;;;;15.98;10.25;;;20.30;59.90;;;;;;5089704;28;20086;-67
2022/05/06 12:56:02;;;;;;;20.38;11.00;;;20.20;59.10;;;;;;5090312;28;20139;-67
2022/05/06 12:58:28;;;;;;;15.15;10.35;;;20.00;58.60;;;;;;5072187;28;20079;-68
2022/05/06 13:00:55;;;;;;;16.25;9.75;;;19.90;59.50;;;;;;5090046;28;20401;-67
2022/05/06 13:03:21;;;;;;;12.90;9.98;;;19.90;59.50;;;;;;5089771;28;20488;-67
2022/05/06 13:05:47;;;;;;;11.93;9.38;;;19.90;59.80;;;;;;5090334;28;20047;-68
2022/05/06 13:08:13;;;;;;;15.73;11.18;;;19.80;59.60;;;;;;5089868;28;20131;-67
2022/05/06 13:10:39;;;;;;;14.07;9.98;;;19.90;59.50;;;;;;5088993;28;20420;-67
2022/05/06 13:13:05;;;;;;;13.02;9.85;;;19.80;59.10;;;;;;5090659;28;20052;-67
2022/05/06 13:15:30;;;;;;;15.55;9.68;;;19.80;58.50;;;;;;5091032;28;20474;-67
2022/05/06 13:17:56;;;;;;;16.38;9.70;;;19.70;58.90;;;;;;5090865;28;20083;-67
2022/05/06 13:20:22;;;;;;;15.13;11.35;;;19.70;59.30;;;;;;5090597;28;20092;-67
2022/05/06 13:22:47;;;;;;;15.65;8.93;;;19.70;58.70;;;;;;5091115;28;20075;-67
2022/05/06 13:25:13;;;;;;;12.85;7.78;;;19.80;59.30;;;;;;5090819;28;20420;-68
2022/05/06 13:27:39;;;;;;;9.77;7.18;;;20.00;57.20;;;;;;5089610;28;20055;-68